Terminal Aerodrome Forecast
Issued by NWS Bismarck, ND

Home | Current Version | Previous Version | Text Only | Print | Product List | Glossary Off
Versions: 1 2 3 4 5 6 7 8 9 10 11 12 13 14 15 16

000
FTUS43 KBIS 181134
TAFISN
TAF
KISN 181134Z 1812/1912 00000KT P6SM SKC
     FM181600 17007KT P6SM FEW250
     FM182200 15009KT P6SM SCT100 BKN200
     FM190300 13009KT P6SM BKN110 WS020/15040KT
     FM190900 12007KT P6SM BKN120=

USA.gov is the U.S. government's official web portal to all federal, state and local government web resources and services.